Time;durP1;ratioP1;P1;durP2;ratioP2;P2;SDS_P1;SDS_P2;PMS_P1;PMS_P2;Temp;Humidity;BMP_temperature;BMP_pressure;BME280_temperature;BME280_humidity;BME280_pressure;Samples;Min_cycle;Max_cycle;Signal;HPM_P1;HPM_P2
2022/09/22 00:00:38;;;;;;;7.00;4.00;;;;;;;11.07;59.01;100324.91;7603364;32;39261;-73
2022/09/22 00:04:54;;;;;;;6.55;3.90;;;;;;;11.17;58.70;100325.00;7586258;33;39996;-73
2022/09/22 00:09:12;;;;;;;6.45;3.58;;;;;;;11.09;59.02;100333.69;7586218;33;38737;-73
2022/09/22 00:13:29;;;;;;;6.68;3.70;;;;;;;11.19;58.75;100339.22;7606678;32;36036;-72
2022/09/22 00:17:45;;;;;;;6.00;3.65;;;;;;;11.19;58.42;100320.12;7612046;32;39851;-73
2022/09/22 00:22:02;;;;;;;7.28;3.42;;;;;;;11.18;58.36;100304.00;7611490;32;40197;-73
2022/09/22 00:26:20;;;;;;;5.87;3.83;;;;;;;11.19;58.16;100306.47;7608668;32;38075;-73
2022/09/22 00:30:41;;;;;;;6.25;3.83;;;;;;;11.23;58.06;100302.13;7606886;32;36849;-73
2022/09/22 00:34:57;;;;;;;6.37;3.60;;;;;;;10.74;59.37;100305.03;7606689;32;39152;-73
2022/09/22 00:39:14;;;;;;;7.18;3.62;;;;;;;10.65;59.82;100304.69;7606986;32;40739;-73
2022/09/22 00:43:33;;;;;;;6.15;3.75;;;;;;;10.78;58.97;100298.00;7585906;32;38728;-74
2022/09/22 00:47:49;;;;;;;5.68;3.53;;;;;;;10.66;59.15;100297.34;7581046;33;37753;-73
2022/09/22 00:52:06;;;;;;;7.47;3.62;;;;;;;10.45;59.47;100294.44;7580990;33;40072;-73
2022/09/22 00:56:31;;;;;;;9.38;3.95;;;;;;;10.56;59.18;100298.06;7579667;33;39934;-73
2022/09/22 01:00:47;;;;;;;5.22;3.42;;;;;;;10.47;59.61;100305.09;7579771;33;38013;-73
2022/09/22 01:05:03;;;;;;;7.75;4.03;;;;;;;10.42;59.74;100303.12;7580755;33;36885;-73
2022/09/22 01:09:19;;;;;;;8.52;4.22;;;;;;;10.40;60.09;100308.03;7580744;33;40000;-73
2022/09/22 01:13:56;;;;;;;7.07;3.87;;;;;;;10.28;60.64;100310.06;7600360;32;40734;-73
2022/09/22 01:18:53;;;;;;;6.12;3.65;;;;;;;10.11;61.67;100308.22;7593780;32;37907;-73
2022/09/22 01:23:18;;;;;;;8.30;3.90;;;;;;;9.89;62.62;100310.16;7560697;32;37147;-72
2022/09/22 01:27:50;;;;;;;7.15;4.05;;;;;;;9.97;62.40;100312.44;7606539;32;39794;-73
2022/09/22 01:32:12;;;;;;;7.30;4.28;;;;;;;9.79;62.97;100302.69;7606362;32;39949;-73
2022/09/22 01:37:19;;;;;;;7.93;3.87;;;;;;;9.77;62.79;100302.94;7603950;32;38208;-73
2022/09/22 01:41:46;;;;;;;7.68;4.00;;;;;;;9.81;62.76;100302.44;7593885;32;37073;-73
2022/09/22 01:46:06;;;;;;;7.68;3.70;;;;;;;10.13;61.56;100305.25;7580508;33;39459;-73
2022/09/22 01:50:27;;;;;;;6.40;4.15;;;;;;;10.20;61.30;100302.34;7579901;32;39964;-73
2022/09/22 01:55:01;;;;;;;9.32;4.32;;;;;;;9.92;61.80;100293.31;7580312;33;37804;-73
2022/09/22 01:59:20;;;;;;;7.80;4.12;;;;;;;10.42;60.33;100300.41;7580288;33;37836;-73
2022/09/22 02:03:42;;;;;;;10.10;4.45;;;;;;;10.01;61.49;100296.41;7580147;33;39675;-73
2022/09/22 02:08:01;;;;;;;8.10;4.40;;;;;;;10.05;61.32;100292.91;7578886;33;40818;-73
2022/09/22 02:12:17;;;;;;;7.55;4.15;;;;;;;10.04;61.26;100288.56;7592597;32;37822;-73
2022/09/22 02:16:33;;;;;;;9.30;4.80;;;;;;;10.37;59.83;100277.75;7604764;32;37288;-73
2022/09/22 02:20:50;;;;;;;6.60;4.75;;;;;;;10.40;59.51;100280.75;7591047;32;40031;-73
2022/09/22 02:25:07;;;;;;;7.30;4.10;;;;;;;10.17;60.12;100283.78;7579756;33;40744;-73
2022/09/22 02:29:25;;;;;;;6.40;4.20;;;;;;;10.06;60.80;100283.66;7579976;33;38200;-73
2022/09/22 02:33:41;;;;;;;6.68;4.20;;;;;;;10.21;60.36;100279.44;7579716;33;36994;-74
2022/09/22 02:38:15;;;;;;;8.77;4.68;;;;;;;9.97;61.07;100279.75;7579862;33;39402;-74
2022/09/22 02:42:33;;;;;;;8.00;4.45;;;;;;;9.84;61.63;100275.50;7587190;32;40243;-73
2022/09/22 02:47:01;;;;;;;6.45;4.05;;;;;;;9.69;62.10;100275.34;7578210;32;37935;-73
2022/09/22 02:51:17;;;;;;;8.38;3.95;;;;;;;9.38;62.85;100277.66;7578066;33;37300;-74
2022/09/22 02:55:33;;;;;;;7.75;4.50;;;;;;;9.54;62.46;100267.81;7579451;33;39319;-74
2022/09/22 02:59:49;;;;;;;8.45;4.00;;;;;;;9.85;61.44;100270.87;7579375;33;40969;-73
2022/09/22 03:04:05;;;;;;;6.70;3.78;;;;;;;9.68;61.81;100274.53;7579144;33;38594;-74
2022/09/22 03:08:21;;;;;;;7.57;4.20;;;;;;;9.51;62.29;100268.31;7579225;33;37061;-74
2022/09/22 03:12:42;;;;;;;7.62;4.37;;;;;;;9.99;60.83;100260.44;7591609;32;40120;-74
2022/09/22 03:17:18;;;;;;;6.50;4.28;;;;;;;9.56;61.96;100268.38;7604625;32;40165;-74
2022/09/22 03:21:34;;;;;;;10.32;4.55;;;;;;;9.45;62.19;100263.87;7604519;32;37937;-73
2022/09/22 03:25:50;;;;;;;6.50;4.03;;;;;;;9.78;60.75;100261.03;7604520;32;37159;-74
2022/09/22 03:30:08;;;;;;;7.57;4.50;;;;;;;9.56;61.24;100263.75;7604483;32;40062;-73
2022/09/22 03:34:24;;;;;;;8.85;4.57;;;;;;;9.58;61.47;100268.94;7603113;32;40620;-74
2022/09/22 03:38:40;;;;;;;10.25;4.43;;;;;;;9.14;62.85;100266.19;7604375;32;37929;-73
2022/09/22 03:42:56;;;;;;;8.43;4.03;;;;;;;9.22;62.77;100263.03;7586758;32;36894;-73
2022/09/22 03:47:12;;;;;;;7.15;4.55;;;;;;;9.14;63.16;100271.63;7578208;33;40089;-73
2022/09/22 03:51:28;;;;;;;8.50;4.30;;;;;;;9.16;63.40;100273.03;7578099;32;40863;-73
2022/09/22 03:55:44;;;;;;;9.23;4.60;;;;;;;9.11;63.45;100277.59;7577985;33;38871;-73
2022/09/22 04:00:00;;;;;;;9.88;4.47;;;;;;;9.18;63.71;100278.22;7578266;33;37197;-73
2022/09/22 04:04:16;;;;;;;10.43;5.37;;;;;;;9.16;63.70;100275.75;7581516;33;39445;-72
2022/09/22 04:08:32;;;;;;;7.70;4.10;;;;;;;9.20;63.17;100271.44;7581477;33;40393;-73
2022/09/22 04:12:48;;;;;;;7.22;4.47;;;;;;;9.22;63.03;100271.19;7597171;32;38224;-73
2022/09/22 04:17:04;;;;;;;7.25;4.20;;;;;;;9.71;60.98;100265.84;7607270;32;37529;-73
2022/09/22 04:21:20;;;;;;;7.00;4.55;;;;;;;9.14;62.48;100263.47;7585637;32;39276;-73
2022/09/22 04:25:36;;;;;;;9.13;4.53;;;;;;;9.14;62.40;100266.19;7581166;33;39906;-73
2022/09/22 04:29:52;;;;;;;8.65;4.50;;;;;;;9.22;62.33;100268.47;7581255;33;37846;-74
2022/09/22 04:34:08;;;;;;;8.48;4.50;;;;;;;9.10;62.84;100267.78;7581111;33;37063;-74
2022/09/22 04:38:25;;;;;;;8.57;4.40;;;;;;;9.30;62.53;100270.78;7581183;33;40017;-73
2022/09/22 04:42:43;;;;;;;8.75;4.93;;;;;;;9.07;64.03;100260.09;7596512;32;40637;-74
2022/09/22 04:46:59;;;;;;;14.02;5.47;;;;;;;9.30;63.23;100262.62;7605737;32;37716;-73
2022/09/22 04:51:15;;;;;;;12.05;5.78;;;;;;;9.43;63.01;100263.31;7606723;32;36905;-73
2022/09/22 04:55:31;;;;;;;9.13;5.55;;;;;;;9.14;64.39;100260.75;7606768;32;38985;-73
2022/09/22 04:59:47;;;;;;;8.57;5.30;;;;;;;9.36;64.20;100256.16;7605532;32;40591;-73
2022/09/22 05:04:03;;;;;;;8.77;5.30;;;;;;;9.57;63.28;100261.84;7606699;32;37709;-74
2022/09/22 05:08:19;;;;;;;14.05;5.43;;;;;;;9.37;63.91;100274.13;7606694;32;36801;-74
2022/09/22 05:12:40;;;;;;;11.30;5.28;;;;;;;9.45;63.67;100266.59;7590727;32;39978;-75
2022/09/22 05:16:56;;;;;;;9.85;5.45;;;;;;;9.55;63.50;100267.56;7581970;32;39935;-73
2022/09/22 05:21:12;;;;;;;9.80;5.40;;;;;;;9.76;63.10;100267.78;7580651;33;38059;-75
2022/09/22 05:25:28;;;;;;;11.70;5.15;;;;;;;9.50;64.28;100275.69;7586393;32;37191;-75
2022/09/22 05:29:44;;;;;;;9.45;5.40;;;;;;;9.57;64.76;100273.59;7606597;32;39554;-74
2022/09/22 05:34:00;;;;;;;9.93;5.07;;;;;;;9.60;65.07;100264.06;7606264;32;39968;-74
2022/09/22 05:38:16;;;;;;;14.77;6.28;;;;;;;9.71;64.56;100263.13;7583440;32;38596;-77
2022/09/22 05:42:33;;;;;;;10.38;5.43;;;;;;;9.96;63.54;100278.91;7583080;32;37326;-74
2022/09/22 05:46:49;;;;;;;9.07;5.50;;;;;;;9.80;63.51;100282.56;7580352;32;39103;-74
2022/09/22 05:51:05;;;;;;;9.82;4.80;;;;;;;9.77;64.00;100286.59;7588269;32;40705;-76
2022/09/22 05:55:21;;;;;;;8.73;5.50;;;;;;;9.88;63.79;100287.56;7580256;33;38669;-76
2022/09/22 05:59:37;;;;;;;8.82;4.78;;;;;;;10.11;63.48;100281.00;7583017;32;37090;-74
2022/09/22 06:03:53;;;;;;;11.10;4.85;;;;;;;10.28;63.14;100286.34;7601753;32;39725;-76
2022/09/22 06:08:09;;;;;;;9.75;5.47;;;;;;;9.88;64.26;100284.00;7581953;32;39911;-77
2022/09/22 06:12:25;;;;;;;10.43;5.57;;;;;;;10.19;63.98;100289.78;7576722;33;37914;-74
2022/09/22 06:16:42;;;;;;;9.82;4.72;;;;;;;10.39;63.40;100291.94;7580160;33;37144;-76
2022/09/22 06:20:58;;;;;;;8.98;4.70;;;;;;;10.67;62.64;100294.34;7591469;32;40195;-74
2022/09/22 06:25:15;;;;;;;7.32;4.35;;;;;;;10.66;63.77;100292.72;7604776;32;39972;-75
2022/09/22 06:29:31;;;;;;;8.48;5.07;;;;;;;10.75;62.43;100287.59;7556613;32;38063;-77
2022/09/22 06:33:47;;;;;;;7.60;4.70;;;;;;;10.60;62.97;100293.72;7579903;33;37135;-74
2022/09/22 06:38:08;;;;;;;9.95;6.22;;;;;;;10.91;62.48;100293.97;7581597;32;40000;-75
2022/09/22 06:42:24;;;;;;;15.57;6.50;;;;;;;10.60;64.24;100298.37;7600038;32;40081;-74
2022/09/22 06:46:40;;;;;;;7.97;4.87;;;;;;;10.58;64.90;100290.44;7595194;32;38269;-74
2022/09/22 06:50:56;;;;;;;9.60;5.37;;;;;;;11.23;61.62;100290.38;7605268;32;37074;-74
2022/09/22 06:55:18;;;;;;;11.57;5.15;;;;;;;11.30;61.48;100284.66;7605213;32;40430;-77
2022/09/22 06:59:36;;;;;;;9.60;4.65;;;;;;;10.97;63.13;100294.84;7605356;32;40849;-75
2022/09/22 07:03:53;;;;;;;8.43;5.00;;;;;;;11.12;62.50;100300.41;7598694;32;36858;-76
2022/09/22 07:08:09;;;;;;;8.43;5.35;;;;;;;11.29;63.14;100297.50;7593339;32;38080;-74
2022/09/22 07:12:25;;;;;;;8.80;5.20;;;;;;;11.50;63.71;100298.44;7579936;32;40081;-75
2022/09/22 07:16:42;;;;;;;9.90;5.60;;;;;;;11.88;62.91;100296.41;7584074;32;39919;-75
2022/09/22 07:21:06;;;;;;;8.43;4.85;;;;;;;12.21;61.27;100289.72;7594361;32;39088;-75
2022/09/22 07:25:22;;;;;;;15.48;9.98;;;;;;;12.82;61.13;100288.09;7604779;32;36720;-75
2022/09/22 07:29:38;;;;;;;8.68;5.43;;;;;;;12.39;60.50;100287.53;7604620;32;39325;-75
2022/09/22 07:33:55;;;;;;;23.50;11.15;;;;;;;12.25;60.69;100289.97;7604783;32;40755;-76
2022/09/22 07:38:11;;;;;;;25.42;14.65;;;;;;;12.69;60.18;100285.91;7607736;32;38659;-77
2022/09/22 07:42:27;;;;;;;12.32;5.82;;;;;;;12.87;59.20;100290.03;7581967;32;37187;-75
2022/09/22 07:46:44;;;;;;;25.62;12.73;;;;;;;12.01;60.95;100290.47;7581750;33;39426;-75
2022/09/22 07:51:00;;;;;;;93.28;43.25;;;;;;;11.86;60.56;100295.03;7581637;32;40888;-76
2022/09/22 07:55:16;;;;;;;7.40;4.32;;;;;;;12.55;59.77;100277.44;7581520;33;38111;-75
2022/09/22 07:59:32;;;;;;;19.42;9.07;;;;;;;12.64;58.10;100286.75;7581658;33;37174;-76
2022/09/22 08:03:49;;;;;;;122.15;43.35;;;;;;;12.91;58.12;100286.44;7581886;32;39314;-76
2022/09/22 08:08:06;;;;;;;56.53;19.85;;;;;;;13.15;57.75;100296.81;7580878;32;40007;-78
2022/09/22 08:12:23;;;;;;;39.60;13.62;;;;;;;12.32;58.40;100311.59;7581281;33;37798;-80
2022/09/22 08:16:40;;;;;;;7.72;4.15;;;;;;;12.36;58.25;100299.81;7581796;33;37917;-75
2022/09/22 08:20:57;;;;;;;19.42;8.65;;;;;;;12.88;57.65;100286.19;7572717;33;39279;-75
2022/09/22 08:25:13;;;;;;;6.15;3.90;;;;;;;12.97;57.08;100298.22;7577423;32;40722;-77
2022/09/22 08:29:29;;;;;;;9.75;5.00;;;;;;;12.24;59.40;100302.00;7580876;33;38654;-75
2022/09/22 08:33:48;;;;;;;11.18;3.95;;;;;;;12.65;57.86;100280.16;7592861;32;37283;-75
2022/09/22 08:38:04;;;;;;;9.98;5.22;;;;;;;12.78;57.90;100287.84;7588219;32;39467;-77
2022/09/22 08:42:27;;;;;;;7.00;3.80;;;;;;;13.38;56.43;100284.47;7559085;33;41185;-77
2022/09/22 08:46:45;;;;;;;8.48;3.72;;;;;;;13.36;56.59;100286.66;7576404;33;38269;-76
2022/09/22 08:55:43;;;;;;;30.60;16.12;;;;;;;14.09;54.27;100277.87;7578292;33;40003;-76
2022/09/22 09:00:06;;;;;;;62.15;28.60;;;;;;;14.36;53.90;100276.56;7579919;32;38795;-76
2022/09/22 09:04:48;;;;;;;53.78;29.58;;;;;;;14.62;52.68;100269.00;7579303;33;38896;-75
2022/09/22 09:09:22;;;;;;;12.48;6.28;;;;;;;15.17;50.64;100267.94;7577323;33;38051;-75
2022/09/22 09:13:53;;;;;;;12.13;6.20;;;;;;;15.47;50.71;100257.72;7575845;33;40906;-76
2022/09/22 09:18:19;;;;;;;55.45;42.95;;;;;;;14.96;49.96;100262.66;7575130;33;41095;-75
2022/09/22 09:22:40;;;;;;;35.45;21.23;;;;;;;14.89;51.00;100256.69;7575771;33;37837;-74
2022/09/22 09:27:11;;;;;;;46.17;22.00;;;;;;;15.52;49.77;100249.41;7577114;33;37327;-75
2022/09/22 09:31:33;;;;;;;18.62;11.60;;;;;;;16.14;48.87;100255.78;7578507;33;39279;-74
2022/09/22 09:35:52;;;;;;;7.57;5.10;;;;;;;15.36;48.47;100260.59;7580435;33;39989;-74
2022/09/22 09:40:17;;;;;;;12.68;7.80;;;;;;;15.66;47.01;100263.25;7580526;33;37993;-74
2022/09/22 09:44:38;;;;;;;11.10;7.25;;;;;;;16.14;47.07;100255.78;7579434;33;37705;-74
2022/09/22 09:49:01;;;;;;;6.28;3.40;;;;;;;16.01;45.38;100251.00;7579938;33;39123;-75
2022/09/22 09:53:46;;;;;;;12.97;6.43;;;;;;;16.29;44.39;100251.94;7577114;33;40727;-75
2022/09/22 09:58:09;;;;;;;23.83;12.10;;;;;;;17.44;42.88;100249.69;7569161;33;38084;-76
2022/09/22 10:02:28;;;;;;;29.25;12.73;;;;;;;17.35;42.91;100246.00;7577722;33;37577;-76
2022/09/22 10:06:45;;;;;;;15.57;5.62;;;;;;;17.46;42.29;100239.19;7579820;33;39842;-76
2022/09/22 10:11:02;;;;;;;6.90;3.15;;;;;;;17.98;43.14;100241.69;7580251;33;39753;-76
2022/09/22 10:15:25;;;;;;;5.65;3.20;;;;;;;18.61;38.14;100231.62;7578897;33;37627;-76
2022/09/22 10:19:41;;;;;;;5.12;3.03;;;;;;;19.02;36.38;100230.56;7580200;33;37026;-77
2022/09/22 10:23:59;;;;;;;3.05;2.10;;;;;;;18.97;36.82;100229.91;7580095;33;39374;-76
2022/09/22 10:28:18;;;;;;;4.07;2.70;;;;;;;19.06;35.24;100223.28;7579952;33;39929;-76
2022/09/22 10:32:35;;;;;;;4.62;2.17;;;;;;;18.93;36.35;100229.72;7578832;33;38493;-76
2022/09/22 10:36:51;;;;;;;3.12;2.00;;;;;;;18.56;35.57;100232.56;7579793;33;37666;-76
2022/09/22 10:41:16;;;;;;;5.00;2.30;;;;;;;17.65;38.08;100234.34;7579820;33;39325;-76
2022/09/22 10:45:57;;;;;;;5.78;2.60;;;;;;;18.86;36.99;100221.88;7580005;33;39914;-76
2022/09/22 10:50:45;;;;;;;7.00;2.20;;;;;;;18.52;36.06;100227.97;7579713;33;38009;-76
2022/09/22 10:55:24;;;;;;;3.35;2.00;;;;;;;18.84;35.63;100217.81;7578685;33;36988;-76
2022/09/22 11:00:19;;;;;;;2.72;1.87;;;;;;;18.80;36.24;100222.28;7578546;33;39472;-76
2022/09/22 11:05:04;;;;;;;4.03;2.30;;;;;;;18.95;37.39;100216.41;7578112;33;40708;-76
2022/09/22 11:14:47;;;;;;;3.67;2.03;;;;;;;20.05;37.94;100195.22;7579591;33;37499;-75
2022/09/22 11:19:22;;;;;;;4.85;2.28;;;;;;;20.30;34.66;100194.72;7578259;33;39172;-76
2022/09/22 11:23:58;;;;;;;6.75;1.95;;;;;;;21.17;33.82;100181.44;7579097;33;40140;-74
2022/09/22 11:28:20;;;;;;;3.12;1.90;;;;;;;21.76;29.79;100171.47;7578814;33;38785;-74
2022/09/22 11:33:06;;;;;;;12.90;8.20;;;;;;;21.92;29.90;100166.13;7578890;33;37345;-74
2022/09/22 11:38:01;;;;;;;3.10;1.55;;;;;;;21.73;27.16;100156.34;7578552;33;40071;-74
2022/09/22 11:42:54;;;;;;;4.47;2.72;;;;;;;22.26;28.54;100147.53;7578744;33;39760;-74
2022/09/22 11:47:15;;;;;;;27.33;15.00;;;;;;;20.55;30.39;100146.78;7561601;33;37854;-74
2022/09/22 11:51:31;;;;;;;2.80;1.80;;;;;;;20.38;30.71;100142.09;7578376;33;37415;-74
2022/09/22 11:56:15;;;;;;;2.80;1.62;;;;;;;20.85;28.95;100144.09;7578487;33;39304;-74
2022/09/22 12:00:44;;;;;;;3.10;1.60;;;;;;;20.02;28.79;100135.00;7578125;33;40843;-74
2022/09/22 12:05:37;;;;;;;11.82;4.85;;;;;;;21.15;28.80;100117.22;7576879;33;38015;-76
2022/09/22 12:09:59;;;;;;;;;;;;;;;22.01;26.36;100122.47;7577316;33;37914;-76
2022/09/22 12:14:15;;;;;;;13.25;9.05;;;;;;;22.56;26.59;100120.47;7577685;33;39460;-75
2022/09/22 12:18:52;;;;;;;10.13;6.97;;;;;;;22.48;27.07;100122.16;7576485;33;40740;-76
2022/09/22 12:23:27;;;;;;;3.08;1.65;;;;;;;22.29;25.40;100108.81;7578788;33;38100;-75
2022/09/22 12:27:44;;;;;;;4.07;2.70;;;;;;;22.27;26.19;100107.53;7581362;33;37089;-76
2022/09/22 12:32:01;;;;;;;9.15;4.45;;;;;;;22.99;26.10;100096.03;7581363;33;39910;-76
2022/09/22 12:36:27;;;;;;;1.52;1.42;;;;;;;22.60;24.10;100104.72;7561807;33;40654;-75
2022/09/22 12:40:46;;;;;;;4.62;1.60;;;;;;;23.00;24.70;100089.34;7565766;33;38004;-76
2022/09/22 12:45:07;;;;;;;10.77;4.55;;;;;;;22.12;24.64;100095.91;7553674;33;37763;-76
2022/09/22 12:49:23;;;;;;;4.60;2.60;;;;;;;23.23;24.40;100075.75;7554827;33;39203;-77
2022/09/22 12:53:39;;;;;;;1.92;1.48;;;;;;;22.02;23.76;100085.22;7553817;33;39785;-76
2022/09/22 12:58:02;;;;;;;3.28;1.37;;;;;;;21.86;22.95;100075.94;7553317;33;39139;-75
2022/09/22 13:02:43;;;;;;;1.40;1.30;;;;;;;21.25;23.86;100074.44;7554122;33;37858;-76
2022/09/22 13:06:59;;;;;;;3.42;1.55;;;;;;;21.89;24.81;100064.16;7550015;33;39225;-77
2022/09/22 13:11:15;;;;;;;1.77;1.60;;;;;;;20.07;26.16;100073.97;7554486;33;40807;-77
2022/09/22 13:15:53;;;;;;;1.92;1.30;;;;;;;21.12;28.32;100065.22;7555122;33;38191;-76
2022/09/22 13:20:33;;;;;;;1.77;1.40;;;;;;;21.76;26.72;100069.62;7555249;33;36841;-78
2022/09/22 13:24:49;;;;;;;1.20;1.10;;;;;;;21.61;26.90;100064.72;7551592;33;39151;-77
2022/09/22 13:29:17;;;;;;;2.80;1.23;;;;;;;21.66;27.45;100086.72;7555032;33;40612;-76
2022/09/22 13:33:35;;;;;;;2.60;1.15;;;;;;;21.31;28.93;100111.09;7554862;33;38728;-76
2022/09/22 13:37:54;;;;;;;1.67;1.20;;;;;;;20.53;35.65;100099.22;7554681;33;37767;-76
2022/09/22 13:42:21;;;;;;;1.23;1.12;;;;;;;19.68;34.69;100084.06;7566273;32;39323;-77
2022/09/22 13:46:41;;;;;;;1.40;1.30;;;;;;;19.73;33.27;100083.09;7554821;33;40742;-77
2022/09/22 13:51:01;;;;;;;2.17;1.20;;;;;;;19.92;30.60;100081.94;7541566;32;38577;-78
2022/09/22 13:55:32;;;;;;;1.20;1.00;;;;;;;19.56;31.52;100080.28;7554658;33;37831;-77
2022/09/22 13:59:50;;;;;;;3.17;1.50;;;;;;;19.26;36.55;100069.06;7564307;33;39143;-78
2022/09/22 14:04:20;;;;;;;2.80;1.73;;;;;;;18.90;37.44;100075.66;7565173;33;39567;-77
2022/09/22 14:08:36;;;;;;;1.70;1.50;;;;;;;19.18;33.29;100067.09;7565233;33;38140;-78
2022/09/22 14:12:53;;;;;;;1.83;1.50;;;;;;;19.25;39.22;100070.22;7553905;33;36936;-78
2022/09/22 14:17:27;;;;;;;2.92;1.55;;;;;;;20.05;34.14;100067.91;7554577;33;39980;-78
2022/09/22 14:21:51;;;;;;;2.97;1.60;;;;;;;20.61;32.81;100067.91;7553680;33;40015;-78
2022/09/22 14:26:26;;;;;;;3.75;1.42;;;;;;;21.07;29.74;100054.31;7554228;33;38778;-78
2022/09/22 14:30:42;;;;;;;2.55;1.40;;;;;;;20.06;28.89;100057.69;7553857;33;37795;-79
2022/09/22 14:35:00;;;;;;;3.17;1.30;;;;;;;19.41;30.63;100057.53;7553629;33;39336;-78
2022/09/22 14:39:21;;;;;;;1.98;1.35;;;;;;;19.40;30.50;100053.13;7564783;33;40028;-78
2022/09/22 14:43:40;;;;;;;1.87;1.50;;;;;;;19.95;30.71;100039.78;7563095;33;38845;-78
2022/09/22 14:48:13;;;;;;;3.87;1.70;;;;;;;19.48;35.00;100048.75;7553941;33;36841;-78
2022/09/22 14:52:33;;;;;;;3.10;1.83;;;;;;;20.13;34.29;100037.78;7550115;32;39169;-78
2022/09/22 14:56:50;;;;;;;7.20;1.77;;;;;;;20.14;33.18;100048.53;7564358;33;40609;-78
2022/09/22 15:06:04;;;;;;;3.55;2.12;;;;;;;19.92;34.10;100045.97;7553627;33;36809;-77
2022/09/22 15:10:24;;;;;;;4.07;1.90;;;;;;;20.45;30.98;100041.91;7563555;33;40235;-78
2022/09/22 15:14:43;;;;;;;2.75;1.75;;;;;;;20.82;29.85;100031.97;7552782;33;39897;-78
2022/09/22 15:18:59;;;;;;;1.77;1.27;;;;;;;20.85;29.22;100038.78;7563889;33;38612;-78
2022/09/22 15:23:26;;;;;;;2.58;1.48;;;;;;;20.80;29.29;100036.25;7563875;33;37009;-77
2022/09/22 15:27:43;;;;;;;2.15;1.30;;;;;;;21.48;28.63;100043.63;7552908;33;39458;-78
2022/09/22 15:32:03;;;;;;;2.53;1.73;;;;;;;21.51;27.06;100045.72;7553263;33;40799;-77
2022/09/22 15:36:21;;;;;;;2.65;1.17;;;;;;;21.53;26.86;100044.22;7552186;33;37797;-75
2022/09/22 15:40:37;;;;;;;1.23;1.15;;;;;;;21.86;29.72;100053.72;7563284;33;37248;-73
2022/09/22 15:44:53;;;;;;;3.78;1.37;;;;;;;21.83;26.80;100051.63;7552427;33;39267;-76
2022/09/22 15:49:23;;;;;;;1.85;1.20;;;;;;;22.42;25.12;100048.56;7552246;33;40740;-76
2022/09/22 15:53:40;;;;;;;2.70;1.37;;;;;;;23.04;25.11;100051.31;7544968;32;38906;-75
2022/09/22 15:58:07;;;;;;;1.52;1.12;;;;;;;23.75;23.15;100037.91;7553990;33;37336;-73
2022/09/22 16:02:24;;;;;;;1.37;1.05;;;;;;;22.35;24.34;100048.31;7556032;33;40026;-76
2022/09/22 16:06:46;;;;;;;1.75;1.20;;;;;;;22.82;24.07;100050.66;7555168;33;39889;-75
2022/09/22 16:11:04;;;;;;;1.57;1.03;;;;;;;24.33;22.46;100049.47;7555445;33;39147;-75
2022/09/22 16:15:20;;;;;;;1.48;1.00;;;;;;;25.92;20.63;100051.06;7555523;33;37829;-76
2022/09/22 16:19:36;;;;;;;2.12;1.10;;;;;;;26.89;19.91;100060.38;7555470;33;40176;-75
2022/09/22 16:23:55;;;;;;;2.25;1.37;;;;;;;26.37;20.21;100063.50;7555507;33;40897;-76
2022/09/22 16:28:16;;;;;;;1.58;1.23;;;;;;;26.63;20.67;100073.16;7555182;33;36481;-75
2022/09/22 16:32:33;;;;;;;1.12;1.00;;;;;;;26.24;21.45;100071.25;7555294;33;37868;-75
2022/09/22 16:36:49;;;;;;;1.62;1.00;;;;;;;24.29;24.31;100070.84;7553924;33;39879;-75
2022/09/22 16:41:20;;;;;;;1.15;1.00;;;;;;;23.14;25.59;100077.87;7565711;32;40726;-74
2022/09/22 16:50:11;;;;;;;3.80;1.10;;;;;;;20.90;30.36;100090.44;7587815;32;38132;-74
2022/09/22 16:54:28;;;;;;;2.70;1.23;;;;;;;20.14;32.06;100097.53;7598001;32;39465;-74
2022/09/22 16:58:44;;;;;;;2.78;1.20;;;;;;;19.47;32.24;100100.47;7588823;32;40228;-75
2022/09/22 17:03:00;;;;;;;4.85;1.65;;;;;;;19.20;32.69;100103.53;7606828;32;39030;-72
2022/09/22 17:07:16;;;;;;;2.92;1.50;;;;;;;18.28;33.88;100121.50;7588491;32;37148;-72
2022/09/22 17:11:38;;;;;;;3.87;1.67;;;;;;;17.92;35.17;100133.41;7594065;32;39473;-74
2022/09/22 17:16:21;;;;;;;4.05;2.08;;;;;;;17.43;36.73;100129.53;7584395;32;41035;-76
2022/09/22 17:20:37;;;;;;;3.45;2.08;;;;;;;17.29;36.98;100132.31;7553281;33;37809;-78
2022/09/22 17:24:53;;;;;;;2.97;1.70;;;;;;;16.97;37.69;100136.00;7555030;33;37174;-78
2022/09/22 17:29:09;;;;;;;2.55;1.65;;;;;;;17.18;36.85;100137.25;7558671;33;39534;-77
2022/09/22 17:33:29;;;;;;;5.35;1.95;;;;;;;16.84;37.98;100146.72;7580617;33;40172;-78
2022/09/22 17:37:46;;;;;;;3.33;1.60;;;;;;;16.75;38.06;100145.78;7580240;33;37686;-76
2022/09/22 17:42:02;;;;;;;3.75;1.77;;;;;;;16.70;37.82;100165.16;7591251;32;37850;-76
2022/09/22 17:46:19;;;;;;;2.47;1.67;;;;;;;16.73;37.89;100159.03;7581037;32;40148;-76
2022/09/22 17:55:19;;;;;;;2.65;1.73;;;;;;;15.70;39.40;100168.94;7580542;33;37894;-75
2022/09/22 17:59:36;;;;;;;1.90;1.60;;;;;;;15.75;38.51;100171.66;7595427;32;36734;-77
2022/09/22 18:03:53;;;;;;;2.75;1.75;;;;;;;15.70;39.74;100182.69;7606158;32;39280;-77
2022/09/22 18:08:09;;;;;;;6.75;3.35;;;;;;;15.09;42.00;100177.97;7595090;32;254584;-74
2022/09/22 18:12:25;;;;;;;6.35;3.20;;;;;;;15.33;40.88;100183.44;7605773;32;38607;-76
2022/09/22 18:16:42;;;;;;;9.40;4.10;;;;;;;15.23;41.78;100187.16;7605222;32;37034;-75
2022/09/22 18:20:59;;;;;;;10.93;4.45;;;;;;;14.77;43.24;100198.62;7578785;33;40090;-76
2022/09/22 18:25:18;;;;;;;11.32;5.80;;;;;;;14.89;43.33;100196.31;7580305;32;40105;-75
2022/09/22 18:29:34;;;;;;;11.52;5.32;;;;;;;15.23;42.27;100194.56;7579672;33;38432;-75
2022/09/22 18:33:51;;;;;;;12.07;5.25;;;;;;;14.73;44.17;100209.38;7579625;33;37218;-73
2022/09/22 18:38:07;;;;;;;10.77;5.15;;;;;;;14.75;44.27;100200.84;7579731;33;40307;-75
2022/09/22 18:42:25;;;;;;;11.02;5.10;;;;;;;14.54;44.61;100206.50;7585302;32;40741;-75
2022/09/22 18:46:41;;;;;;;8.52;4.37;;;;;;;14.52;44.47;100207.88;7605291;32;37911;-76
2022/09/22 18:50:59;;;;;;;11.00;4.32;;;;;;;14.70;43.26;100203.66;7605514;32;37471;-77
2022/09/22 18:55:17;;;;;;;8.95;4.22;;;;;;;14.35;45.23;100205.53;7605422;32;39090;-75
2022/09/22 18:59:33;;;;;;;11.38;4.10;;;;;;;13.85;45.06;100217.44;7605379;32;42040;-78
2022/09/22 19:03:52;;;;;;;7.65;3.87;;;;;;;14.22;44.44;100220.75;7605177;32;37857;-76
2022/09/22 19:08:09;;;;;;;9.60;4.55;;;;;;;14.24;44.67;100219.34;7605170;32;37181;-77
2022/09/22 19:12:25;;;;;;;10.43;4.45;;;;;;;13.90;46.29;100225.62;7603802;32;39916;-77
2022/09/22 19:16:41;;;;;;;8.07;4.20;;;;;;;14.00;46.27;100219.22;7604959;32;40800;-77
2022/09/22 19:21:02;;;;;;;9.57;3.65;;;;;;;13.94;47.38;100214.91;7589065;32;38808;-77
2022/09/22 19:25:20;;;;;;;8.23;3.97;;;;;;;14.03;47.04;100204.16;7578316;33;37802;-77
2022/09/22 19:29:36;;;;;;;8.82;4.25;;;;;;;13.72;47.39;100218.03;7578967;33;39408;-76
2022/09/22 19:33:52;;;;;;;6.35;3.87;;;;;;;14.04;44.65;100212.09;7581747;33;40963;-77
2022/09/22 19:38:09;;;;;;;8.55;3.47;;;;;;;13.90;45.19;100211.91;7592147;32;37930;-76
2022/09/22 19:42:27;;;;;;;10.65;4.10;;;;;;;13.81;46.12;100213.59;7607763;32;37782;-76
2022/09/22 19:46:44;;;;;;;9.85;4.15;;;;;;;13.74;46.02;100221.31;7607628;32;39260;-76
2022/09/22 19:51:02;;;;;;;6.35;3.40;;;;;;;13.47;46.35;100221.72;7593607;32;40885;-75
2022/09/22 19:55:18;;;;;;;7.47;3.53;;;;;;;13.53;46.88;100218.69;7581715;33;38829;-75
2022/09/22 19:59:36;;;;;;;6.97;3.45;;;;;;;13.36;46.94;100220.13;7581811;33;36711;-73
2022/09/22 20:03:53;;;;;;;7.95;3.87;;;;;;;13.53;45.51;100221.41;7581800;33;39548;-75
2022/09/22 20:08:16;;;;;;;8.60;3.97;;;;;;;13.64;44.86;100221.38;7581286;32;39761;-73
2022/09/22 20:12:32;;;;;;;9.02;3.85;;;;;;;13.43;44.95;100221.47;7581407;33;40747;-73
2022/09/22 20:16:50;;;;;;;11.52;4.32;;;;;;;13.46;44.52;100225.56;7592665;32;37394;-76
2022/09/22 20:21:12;;;;;;;7.57;3.40;;;;;;;13.41;45.59;100229.12;7581587;33;38300;-75
2022/09/22 20:25:30;;;;;;;7.22;3.53;;;;;;;13.01;47.75;100230.87;7591671;32;41355;-74
2022/09/22 20:29:46;;;;;;;6.57;3.30;;;;;;;13.08;47.56;100230.59;7581328;33;37969;-73
2022/09/22 20:34:06;;;;;;;9.02;4.10;;;;;;;12.84;49.09;100231.19;7581210;33;37035;-73